sensor_id;sensor_type;location;lat;lon;timestamp;P1;durP1;ratioP1;P2;durP2;ratioP2
10565;SDS011;5331;48.148;16.326;2022-07-25T00:00:33;6.50;;;6.00;;
10565;SDS011;5331;48.148;16.326;2022-07-25T00:03:00;6.40;;;5.90;;
10565;SDS011;5331;48.148;16.326;2022-07-25T00:05:27;6.38;;;5.78;;
10565;SDS011;5331;48.148;16.326;2022-07-25T00:07:54;6.72;;;6.10;;
10565;SDS011;5331;48.148;16.326;2022-07-25T00:10:21;6.32;;;5.72;;
10565;SDS011;5331;48.148;16.326;2022-07-25T00:12:49;6.28;;;5.72;;
10565;SDS011;5331;48.148;16.326;2022-07-25T00:15:16;6.40;;;5.90;;
10565;SDS011;5331;48.148;16.326;2022-07-25T00:17:43;6.45;;;5.85;;
10565;SDS011;5331;48.148;16.326;2022-07-25T00:20:10;6.32;;;5.80;;
10565;SDS011;5331;48.148;16.326;2022-07-25T00:22:38;6.03;;;5.53;;
10565;SDS011;5331;48.148;16.326;2022-07-25T00:25:05;6.22;;;5.72;;
10565;SDS011;5331;48.148;16.326;2022-07-25T00:27:32;6.15;;;5.55;;
10565;SDS011;5331;48.148;16.326;2022-07-25T00:30:00;6.50;;;6.00;;
10565;SDS011;5331;48.148;16.326;2022-07-25T00:32:27;6.18;;;5.57;;
10565;SDS011;5331;48.148;16.326;2022-07-25T00:34:54;6.47;;;5.88;;
10565;SDS011;5331;48.148;16.326;2022-07-25T00:37:21;6.38;;;5.82;;
10565;SDS011;5331;48.148;16.326;2022-07-25T00:39:47;5.90;;;5.40;;
10565;SDS011;5331;48.148;16.326;2022-07-25T00:42:14;6.03;;;5.45;;
10565;SDS011;5331;48.148;16.326;2022-07-25T00:44:41;6.10;;;5.60;;
10565;SDS011;5331;48.148;16.326;2022-07-25T00:47:09;6.28;;;5.72;;
10565;SDS011;5331;48.148;16.326;2022-07-25T00:49:36;6.25;;;5.70;;
10565;SDS011;5331;48.148;16.326;2022-07-25T00:52:03;6.28;;;5.78;;
10565;SDS011;5331;48.148;16.326;2022-07-25T00:54:31;6.32;;;5.72;;
10565;SDS011;5331;48.148;16.326;2022-07-25T00:56:58;6.55;;;6.00;;
10565;SDS011;5331;48.148;16.326;2022-07-25T00:59:25;6.38;;;5.30;;
10565;SDS011;5331;48.148;16.326;2022-07-25T01:01:52;6.35;;;5.75;;
10565;SDS011;5331;48.148;16.326;2022-07-25T01:04:20;5.90;;;5.45;;
10565;SDS011;5331;48.148;16.326;2022-07-25T01:06:47;5.85;;;5.35;;
10565;SDS011;5331;48.148;16.326;2022-07-25T01:09:14;5.47;;;5.07;;
10565;SDS011;5331;48.148;16.326;2022-07-25T01:11:41;6.28;;;5.78;;
10565;SDS011;5331;48.148;16.326;2022-07-25T01:14:08;6.07;;;5.60;;
10565;SDS011;5331;48.148;16.326;2022-07-25T01:16:35;6.05;;;5.55;;
10565;SDS011;5331;48.148;16.326;2022-07-25T01:19:02;6.28;;;5.78;;
10565;SDS011;5331;48.148;16.326;2022-07-25T01:21:30;6.47;;;5.90;;
10565;SDS011;5331;48.148;16.326;2022-07-25T01:23:57;5.97;;;5.57;;
10565;SDS011;5331;48.148;16.326;2022-07-25T01:26:25;5.93;;;5.43;;
10565;SDS011;5331;48.148;16.326;2022-07-25T01:28:52;6.35;;;5.75;;
10565;SDS011;5331;48.148;16.326;2022-07-25T01:31:19;6.30;;;5.80;;
10565;SDS011;5331;48.148;16.326;2022-07-25T01:33:45;6.18;;;5.68;;
10565;SDS011;5331;48.148;16.326;2022-07-25T01:36:12;6.80;;;6.20;;
10565;SDS011;5331;48.148;16.326;2022-07-25T01:38:41;7.28;;;6.57;;
10565;SDS011;5331;48.148;16.326;2022-07-25T01:41:08;6.28;;;5.78;;
10565;SDS011;5331;48.148;16.326;2022-07-25T01:43:35;6.00;;;5.60;;
10565;SDS011;5331;48.148;16.326;2022-07-25T01:46:01;6.32;;;5.82;;
10565;SDS011;5331;48.148;16.326;2022-07-25T01:48:28;6.00;;;5.40;;
10565;SDS011;5331;48.148;16.326;2022-07-25T01:50:55;6.60;;;5.95;;
10565;SDS011;5331;48.148;16.326;2022-07-25T01:53:22;6.50;;;5.88;;
10565;SDS011;5331;48.148;16.326;2022-07-25T01:55:50;6.15;;;5.60;;
10565;SDS011;5331;48.148;16.326;2022-07-25T01:58:17;6.70;;;6.10;;
10565;SDS011;5331;48.148;16.326;2022-07-25T02:00:44;6.25;;;5.68;;
10565;SDS011;5331;48.148;16.326;2022-07-25T02:03:11;6.18;;;5.57;;
10565;SDS011;5331;48.148;16.326;2022-07-25T02:05:56;7.22;;;6.63;;
10565;SDS011;5331;48.148;16.326;2022-07-25T02:08:24;6.03;;;5.50;;
10565;SDS011;5331;48.148;16.326;2022-07-25T02:10:53;6.63;;;6.03;;
10565;SDS011;5331;48.148;16.326;2022-07-25T02:13:20;6.93;;;6.13;;
10565;SDS011;5331;48.148;16.326;2022-07-25T02:15:47;6.35;;;5.75;;
10565;SDS011;5331;48.148;16.326;2022-07-25T02:18:14;6.18;;;5.68;;
10565;SDS011;5331;48.148;16.326;2022-07-25T02:20:41;5.95;;;5.47;;
10565;SDS011;5331;48.148;16.326;2022-07-25T02:23:08;7.18;;;6.50;;
10565;SDS011;5331;48.148;16.326;2022-07-25T02:25:35;6.68;;;6.18;;
10565;SDS011;5331;48.148;16.326;2022-07-25T02:28:04;6.68;;;6.18;;
10565;SDS011;5331;48.148;16.326;2022-07-25T02:30:31;6.20;;;5.70;;
10565;SDS011;5331;48.148;16.326;2022-07-25T02:32:58;6.82;;;6.22;;
10565;SDS011;5331;48.148;16.326;2022-07-25T02:35:25;6.82;;;6.32;;
10565;SDS011;5331;48.148;16.326;2022-07-25T02:37:52;6.95;;;6.35;;
10565;SDS011;5331;48.148;16.326;2022-07-25T02:40:19;6.72;;;6.13;;
10565;SDS011;5331;48.148;16.326;2022-07-25T02:42:46;6.70;;;6.10;;
10565;SDS011;5331;48.148;16.326;2022-07-25T02:45:14;6.40;;;5.80;;
10565;SDS011;5331;48.148;16.326;2022-07-25T02:47:42;6.38;;;5.85;;
10565;SDS011;5331;48.148;16.326;2022-07-25T02:50:09;6.03;;;5.53;;
10565;SDS011;5331;48.148;16.326;2022-07-25T02:52:36;6.10;;;5.60;;
10565;SDS011;5331;48.148;16.326;2022-07-25T02:55:03;5.93;;;5.40;;
10565;SDS011;5331;48.148;16.326;2022-07-25T02:57:31;6.63;;;6.03;;
10565;SDS011;5331;48.148;16.326;2022-07-25T02:59:57;6.57;;;5.97;;
10565;SDS011;5331;48.148;16.326;2022-07-25T03:02:26;6.32;;;5.82;;
10565;SDS011;5331;48.148;16.326;2022-07-25T03:04:52;7.57;;;5.88;;
10565;SDS011;5331;48.148;16.326;2022-07-25T03:07:19;6.70;;;6.10;;
10565;SDS011;5331;48.148;16.326;2022-07-25T03:09:46;6.18;;;5.68;;
10565;SDS011;5331;48.148;16.326;2022-07-25T03:12:13;6.70;;;5.95;;
10565;SDS011;5331;48.148;16.326;2022-07-25T03:14:40;6.22;;;5.70;;
10565;SDS011;5331;48.148;16.326;2022-07-25T03:17:07;6.40;;;5.90;;
10565;SDS011;5331;48.148;16.326;2022-07-25T03:19:35;6.47;;;5.88;;
10565;SDS011;5331;48.148;16.326;2022-07-25T03:22:02;6.05;;;5.57;;
10565;SDS011;5331;48.148;16.326;2022-07-25T03:24:29;6.10;;;5.50;;
10565;SDS011;5331;48.148;16.326;2022-07-25T03:26:56;5.93;;;5.47;;
10565;SDS011;5331;48.148;16.326;2022-07-25T03:29:23;6.10;;;5.60;;
10565;SDS011;5331;48.148;16.326;2022-07-25T03:31:49;6.35;;;5.85;;
10565;SDS011;5331;48.148;16.326;2022-07-25T03:34:16;6.47;;;5.97;;
10565;SDS011;5331;48.148;16.326;2022-07-25T03:36:45;6.43;;;5.93;;
10565;SDS011;5331;48.148;16.326;2022-07-25T03:39:11;6.25;;;5.65;;
10565;SDS011;5331;48.148;16.326;2022-07-25T03:41:39;5.85;;;5.40;;
10565;SDS011;5331;48.148;16.326;2022-07-25T03:44:06;6.20;;;5.80;;
10565;SDS011;5331;48.148;16.326;2022-07-25T03:46:33;6.53;;;5.93;;
10565;SDS011;5331;48.148;16.326;2022-07-25T03:49:00;5.75;;;5.25;;
10565;SDS011;5331;48.148;16.326;2022-07-25T03:51:27;6.60;;;6.00;;
10565;SDS011;5331;48.148;16.326;2022-07-25T03:53:55;6.97;;;6.38;;
10565;SDS011;5331;48.148;16.326;2022-07-25T03:56:29;7.28;;;6.25;;
10565;SDS011;5331;48.148;16.326;2022-07-25T03:58:56;7.10;;;6.30;;
10565;SDS011;5331;48.148;16.326;2022-07-25T04:01:23;6.78;;;6.20;;
10565;SDS011;5331;48.148;16.326;2022-07-25T04:03:50;6.70;;;6.03;;
10565;SDS011;5331;48.148;16.326;2022-07-25T04:06:17;6.30;;;5.80;;
10565;SDS011;5331;48.148;16.326;2022-07-25T04:08:44;6.28;;;5.68;;
10565;SDS011;5331;48.148;16.326;2022-07-25T04:11:12;6.53;;;5.93;;
10565;SDS011;5331;48.148;16.326;2022-07-25T04:13:39;6.45;;;5.85;;
10565;SDS011;5331;48.148;16.326;2022-07-25T04:16:07;6.20;;;5.70;;
10565;SDS011;5331;48.148;16.326;2022-07-25T04:18:34;5.93;;;5.45;;
10565;SDS011;5331;48.148;16.326;2022-07-25T04:21:02;6.35;;;5.75;;
10565;SDS011;5331;48.148;16.326;2022-07-25T04:23:29;6.50;;;5.80;;
10565;SDS011;5331;48.148;16.326;2022-07-25T04:25:57;6.25;;;5.75;;
10565;SDS011;5331;48.148;16.326;2022-07-25T04:28:25;6.70;;;5.82;;
10565;SDS011;5331;48.148;16.326;2022-07-25T04:30:52;6.93;;;6.28;;
10565;SDS011;5331;48.148;16.326;2022-07-25T04:33:20;6.55;;;5.95;;
10565;SDS011;5331;48.148;16.326;2022-07-25T04:35:48;6.82;;;6.22;;
10565;SDS011;5331;48.148;16.326;2022-07-25T04:38:14;6.82;;;6.05;;
10565;SDS011;5331;48.148;16.326;2022-07-25T04:40:42;6.75;;;6.15;;
10565;SDS011;5331;48.148;16.326;2022-07-25T04:43:09;6.78;;;5.72;;
10565;SDS011;5331;48.148;16.326;2022-07-25T04:45:37;6.80;;;6.10;;
10565;SDS011;5331;48.148;16.326;2022-07-25T04:48:05;7.35;;;6.65;;
10565;SDS011;5331;48.148;16.326;2022-07-25T04:50:32;7.40;;;6.80;;
10565;SDS011;5331;48.148;16.326;2022-07-25T04:52:59;7.35;;;6.18;;
10565;SDS011;5331;48.148;16.326;2022-07-25T04:55:26;6.95;;;6.18;;
10565;SDS011;5331;48.148;16.326;2022-07-25T04:57:52;7.00;;;6.30;;
10565;SDS011;5331;48.148;16.326;2022-07-25T05:00:19;8.18;;;6.45;;
10565;SDS011;5331;48.148;16.326;2022-07-25T05:02:49;7.40;;;6.50;;
10565;SDS011;5331;48.148;16.326;2022-07-25T05:05:16;7.07;;;6.38;;
10565;SDS011;5331;48.148;16.326;2022-07-25T05:07:43;7.85;;;6.93;;
10565;SDS011;5331;48.148;16.326;2022-07-25T05:10:10;9.13;;;7.13;;
10565;SDS011;5331;48.148;16.326;2022-07-25T05:12:37;7.95;;;7.18;;
10565;SDS011;5331;48.148;16.326;2022-07-25T05:15:04;7.22;;;6.63;;
10565;SDS011;5331;48.148;16.326;2022-07-25T05:17:32;7.88;;;7.05;;
10565;SDS011;5331;48.148;16.326;2022-07-25T05:20:00;8.70;;;7.80;;
10565;SDS011;5331;48.148;16.326;2022-07-25T05:22:27;9.25;;;8.18;;
10565;SDS011;5331;48.148;16.326;2022-07-25T05:24:54;11.85;;;8.10;;
10565;SDS011;5331;48.148;16.326;2022-07-25T05:27:21;8.65;;;6.85;;
10565;SDS011;5331;48.148;16.326;2022-07-25T05:29:48;10.43;;;7.10;;
10565;SDS011;5331;48.148;16.326;2022-07-25T05:32:15;6.45;;;5.90;;
10565;SDS011;5331;48.148;16.326;2022-07-25T05:34:42;7.05;;;6.32;;
10565;SDS011;5331;48.148;16.326;2022-07-25T05:37:10;6.97;;;6.45;;
10565;SDS011;5331;48.148;16.326;2022-07-25T05:39:37;6.88;;;6.28;;
10565;SDS011;5331;48.148;16.326;2022-07-25T05:42:04;6.88;;;6.28;;
10565;SDS011;5331;48.148;16.326;2022-07-25T05:44:31;6.65;;;6.05;;
10565;SDS011;5331;48.148;16.326;2022-07-25T05:46:58;6.32;;;5.78;;
10565;SDS011;5331;48.148;16.326;2022-07-25T05:49:26;6.78;;;6.18;;
10565;SDS011;5331;48.148;16.326;2022-07-25T05:51:52;6.38;;;5.88;;
10565;SDS011;5331;48.148;16.326;2022-07-25T05:54:21;7.80;;;6.07;;
10565;SDS011;5331;48.148;16.326;2022-07-25T05:56:48;7.72;;;6.00;;
10565;SDS011;5331;48.148;16.326;2022-07-25T05:59:14;7.78;;;5.78;;
10565;SDS011;5331;48.148;16.326;2022-07-25T06:01:41;6.82;;;5.90;;
10565;SDS011;5331;48.148;16.326;2022-07-25T06:04:08;6.65;;;5.50;;
10565;SDS011;5331;48.148;16.326;2022-07-25T06:06:35;6.28;;;5.68;;
10565;SDS011;5331;48.148;16.326;2022-07-25T06:09:02;7.15;;;6.05;;
10565;SDS011;5331;48.148;16.326;2022-07-25T06:11:31;7.55;;;6.85;;
10565;SDS011;5331;48.148;16.326;2022-07-25T06:13:58;6.70;;;6.05;;
10565;SDS011;5331;48.148;16.326;2022-07-25T06:16:25;6.63;;;6.03;;
10565;SDS011;5331;48.148;16.326;2022-07-25T06:18:52;6.00;;;5.50;;
10565;SDS011;5331;48.148;16.326;2022-07-25T06:21:19;6.50;;;5.97;;
10565;SDS011;5331;48.148;16.326;2022-07-25T06:23:46;7.00;;;6.40;;
10565;SDS011;5331;48.148;16.326;2022-07-25T06:26:12;6.47;;;5.55;;
10565;SDS011;5331;48.148;16.326;2022-07-25T06:28:41;6.40;;;5.80;;
10565;SDS011;5331;48.148;16.326;2022-07-25T06:31:08;6.45;;;5.88;;
10565;SDS011;5331;48.148;16.326;2022-07-25T06:33:34;6.45;;;5.80;;
10565;SDS011;5331;48.148;16.326;2022-07-25T06:36:02;7.70;;;5.70;;
10565;SDS011;5331;48.148;16.326;2022-07-25T06:38:30;6.72;;;6.13;;
10565;SDS011;5331;48.148;16.326;2022-07-25T06:40:57;6.60;;;5.82;;
10565;SDS011;5331;48.148;16.326;2022-07-25T06:43:24;6.72;;;6.10;;
10565;SDS011;5331;48.148;16.326;2022-07-25T06:45:52;7.75;;;5.90;;
10565;SDS011;5331;48.148;16.326;2022-07-25T06:48:19;9.00;;;6.20;;
10565;SDS011;5331;48.148;16.326;2022-07-25T06:50:48;6.30;;;5.80;;
10565;SDS011;5331;48.148;16.326;2022-07-25T06:53:15;6.68;;;5.43;;
10565;SDS011;5331;48.148;16.326;2022-07-25T06:55:42;8.52;;;6.50;;
10565;SDS011;5331;48.148;16.326;2022-07-25T06:58:09;7.93;;;5.63;;
10565;SDS011;5331;48.148;16.326;2022-07-25T07:00:36;5.93;;;5.43;;
10565;SDS011;5331;48.148;16.326;2022-07-25T07:03:05;7.10;;;4.30;;
10565;SDS011;5331;48.148;16.326;2022-07-25T07:05:32;4.95;;;4.00;;
10565;SDS011;5331;48.148;16.326;2022-07-25T07:08:00;4.93;;;3.95;;
10565;SDS011;5331;48.148;16.326;2022-07-25T07:10:28;5.15;;;4.32;;
10565;SDS011;5331;48.148;16.326;2022-07-25T07:13:05;4.35;;;3.95;;
10565;SDS011;5331;48.148;16.326;2022-07-25T07:15:33;4.53;;;4.10;;
10565;SDS011;5331;48.148;16.326;2022-07-25T07:18:01;6.05;;;4.45;;
10565;SDS011;5331;48.148;16.326;2022-07-25T07:20:29;5.80;;;4.45;;
10565;SDS011;5331;48.148;16.326;2022-07-25T07:22:56;5.68;;;5.10;;
10565;SDS011;5331;48.148;16.326;2022-07-25T07:25:23;4.32;;;3.92;;
10565;SDS011;5331;48.148;16.326;2022-07-25T07:27:50;6.32;;;3.88;;
10565;SDS011;5331;48.148;16.326;2022-07-25T07:30:17;4.60;;;4.20;;
10565;SDS011;5331;48.148;16.326;2022-07-25T07:32:44;4.75;;;4.03;;
10565;SDS011;5331;48.148;16.326;2022-07-25T07:35:12;4.75;;;4.13;;
10565;SDS011;5331;48.148;16.326;2022-07-25T07:37:42;4.32;;;3.80;;
10565;SDS011;5331;48.148;16.326;2022-07-25T07:40:10;4.40;;;3.95;;
10565;SDS011;5331;48.148;16.326;2022-07-25T07:42:38;4.13;;;3.50;;
10565;SDS011;5331;48.148;16.326;2022-07-25T07:45:13;3.83;;;3.50;;
10565;SDS011;5331;48.148;16.326;2022-07-25T07:47:40;4.22;;;3.83;;
10565;SDS011;5331;48.148;16.326;2022-07-25T07:50:08;4.30;;;3.65;;
10565;SDS011;5331;48.148;16.326;2022-07-25T07:52:35;4.18;;;3.65;;
10565;SDS011;5331;48.148;16.326;2022-07-25T07:55:05;3.80;;;3.50;;
10565;SDS011;5331;48.148;16.326;2022-07-25T07:57:50;4.05;;;3.65;;
10565;SDS011;5331;48.148;16.326;2022-07-25T08:00:17;7.05;;;3.90;;
10565;SDS011;5331;48.148;16.326;2022-07-25T08:02:45;3.97;;;3.63;;
10565;SDS011;5331;48.148;16.326;2022-07-25T08:05:18;4.10;;;3.80;;
10565;SDS011;5331;48.148;16.326;2022-07-25T08:07:47;4.60;;;4.20;;
10565;SDS011;5331;48.148;16.326;2022-07-25T08:10:17;5.25;;;4.00;;
10565;SDS011;5331;48.148;16.326;2022-07-25T08:12:45;4.95;;;4.18;;
10565;SDS011;5331;48.148;16.326;2022-07-25T08:15:11;7.55;;;3.97;;
10565;SDS011;5331;48.148;16.326;2022-07-25T08:17:39;4.30;;;3.90;;
10565;SDS011;5331;48.148;16.326;2022-07-25T08:20:06;6.85;;;4.03;;
10565;SDS011;5331;48.148;16.326;2022-07-25T08:22:34;4.95;;;3.95;;
10565;SDS011;5331;48.148;16.326;2022-07-25T08:25:02;4.82;;;4.32;;
10565;SDS011;5331;48.148;16.326;2022-07-25T08:27:30;4.75;;;4.30;;
10565;SDS011;5331;48.148;16.326;2022-07-25T08:29:57;5.00;;;4.13;;
10565;SDS011;5331;48.148;16.326;2022-07-25T08:32:25;5.60;;;4.20;;
10565;SDS011;5331;48.148;16.326;2022-07-25T08:34:52;6.43;;;4.20;;
10565;SDS011;5331;48.148;16.326;2022-07-25T08:37:19;4.82;;;4.40;;
10565;SDS011;5331;48.148;16.326;2022-07-25T08:39:46;4.30;;;3.92;;
10565;SDS011;5331;48.148;16.326;2022-07-25T08:42:13;5.05;;;4.47;;
10565;SDS011;5331;48.148;16.326;2022-07-25T08:44:42;4.47;;;4.10;;
10565;SDS011;5331;48.148;16.326;2022-07-25T08:47:14;4.43;;;3.97;;
10565;SDS011;5331;48.148;16.326;2022-07-25T08:49:42;4.93;;;4.25;;
10565;SDS011;5331;48.148;16.326;2022-07-25T08:52:09;4.45;;;4.10;;
10565;SDS011;5331;48.148;16.326;2022-07-25T08:54:36;5.20;;;4.70;;
10565;SDS011;5331;48.148;16.326;2022-07-25T08:57:04;4.90;;;4.50;;
10565;SDS011;5331;48.148;16.326;2022-07-25T08:59:31;6.75;;;4.60;;
10565;SDS011;5331;48.148;16.326;2022-07-25T09:01:59;9.13;;;4.38;;
10565;SDS011;5331;48.148;16.326;2022-07-25T09:04:31;5.15;;;4.50;;
10565;SDS011;5331;48.148;16.326;2022-07-25T09:06:59;4.95;;;4.45;;
10565;SDS011;5331;48.148;16.326;2022-07-25T09:09:29;4.80;;;4.50;;
10565;SDS011;5331;48.148;16.326;2022-07-25T09:11:57;5.85;;;4.90;;
10565;SDS011;5331;48.148;16.326;2022-07-25T09:14:24;5.07;;;4.68;;
10565;SDS011;5331;48.148;16.326;2022-07-25T09:16:52;5.32;;;4.78;;
10565;SDS011;5331;48.148;16.326;2022-07-25T09:19:21;4.80;;;4.50;;
10565;SDS011;5331;48.148;16.326;2022-07-25T09:21:57;5.07;;;4.68;;
10565;SDS011;5331;48.148;16.326;2022-07-25T09:24:25;5.35;;;4.85;;
10565;SDS011;5331;48.148;16.326;2022-07-25T09:26:53;6.50;;;5.15;;
10565;SDS011;5331;48.148;16.326;2022-07-25T09:29:22;5.30;;;4.90;;
10565;SDS011;5331;48.148;16.326;2022-07-25T09:31:50;5.57;;;5.18;;
10565;SDS011;5331;48.148;16.326;2022-07-25T09:34:30;7.32;;;5.35;;
10565;SDS011;5331;48.148;16.326;2022-07-25T09:36:58;6.32;;;5.72;;
10565;SDS011;5331;48.148;16.326;2022-07-25T09:39:32;6.72;;;5.50;;
10565;SDS011;5331;48.148;16.326;2022-07-25T09:42:00;5.53;;;5.13;;
10565;SDS011;5331;48.148;16.326;2022-07-25T09:44:27;6.22;;;5.75;;
10565;SDS011;5331;48.148;16.326;2022-07-25T09:46:55;5.60;;;5.20;;
10565;SDS011;5331;48.148;16.326;2022-07-25T09:49:23;6.05;;;5.55;;
10565;SDS011;5331;48.148;16.326;2022-07-25T09:51:52;6.22;;;5.72;;
10565;SDS011;5331;48.148;16.326;2022-07-25T09:54:20;7.75;;;6.20;;
10565;SDS011;5331;48.148;16.326;2022-07-25T09:56:48;6.53;;;6.03;;
10565;SDS011;5331;48.148;16.326;2022-07-25T09:59:14;6.40;;;5.90;;
10565;SDS011;5331;48.148;16.326;2022-07-25T10:01:44;6.57;;;5.90;;
10565;SDS011;5331;48.148;16.326;2022-07-25T10:04:18;6.65;;;6.15;;
10565;SDS011;5331;48.148;16.326;2022-07-25T10:06:49;6.53;;;6.03;;
10565;SDS011;5331;48.148;16.326;2022-07-25T10:09:21;7.07;;;6.43;;
10565;SDS011;5331;48.148;16.326;2022-07-25T10:12:01;7.28;;;6.57;;
10565;SDS011;5331;48.148;16.326;2022-07-25T10:14:29;6.90;;;6.10;;
10565;SDS011;5331;48.148;16.326;2022-07-25T10:16:58;7.20;;;6.57;;
10565;SDS011;5331;48.148;16.326;2022-07-25T10:22:18;6.40;;;6.00;;
10565;SDS011;5331;48.148;16.326;2022-07-25T10:24:45;6.60;;;6.00;;
10565;SDS011;5331;48.148;16.326;2022-07-25T10:27:13;6.82;;;6.22;;
10565;SDS011;5331;48.148;16.326;2022-07-25T10:29:48;7.25;;;6.57;;
10565;SDS011;5331;48.148;16.326;2022-07-25T10:32:17;6.95;;;6.38;;
10565;SDS011;5331;48.148;16.326;2022-07-25T10:34:50;6.88;;;6.18;;
10565;SDS011;5331;48.148;16.326;2022-07-25T10:37:25;6.95;;;6.45;;
10565;SDS011;5331;48.148;16.326;2022-07-25T10:39:53;6.38;;;5.78;;
10565;SDS011;5331;48.148;16.326;2022-07-25T10:42:20;5.78;;;5.28;;
10565;SDS011;5331;48.148;16.326;2022-07-25T10:44:48;6.60;;;6.10;;
10565;SDS011;5331;48.148;16.326;2022-07-25T10:47:21;6.18;;;5.55;;
10565;SDS011;5331;48.148;16.326;2022-07-25T10:49:53;6.30;;;5.70;;
10565;SDS011;5331;48.148;16.326;2022-07-25T10:52:26;6.45;;;5.80;;
10565;SDS011;5331;48.148;16.326;2022-07-25T10:54:54;5.90;;;5.40;;
10565;SDS011;5331;48.148;16.326;2022-07-25T10:57:22;6.80;;;6.15;;
10565;SDS011;5331;48.148;16.326;2022-07-25T10:59:49;6.47;;;5.85;;
10565;SDS011;5331;48.148;16.326;2022-07-25T11:02:16;6.57;;;6.03;;
10565;SDS011;5331;48.148;16.326;2022-07-25T11:04:44;6.45;;;5.80;;
10565;SDS011;5331;48.148;16.326;2022-07-25T11:07:24;6.57;;;6.18;;
10565;SDS011;5331;48.148;16.326;2022-07-25T11:09:54;6.00;;;5.60;;
10565;SDS011;5331;48.148;16.326;2022-07-25T11:12:23;6.07;;;5.60;;
10565;SDS011;5331;48.148;16.326;2022-07-25T11:14:50;6.45;;;5.95;;
10565;SDS011;5331;48.148;16.326;2022-07-25T11:17:22;6.43;;;5.95;;
10565;SDS011;5331;48.148;16.326;2022-07-25T11:19:53;6.10;;;5.70;;
10565;SDS011;5331;48.148;16.326;2022-07-25T11:22:21;5.97;;;5.57;;
10565;SDS011;5331;48.148;16.326;2022-07-25T11:24:50;6.30;;;5.80;;
10565;SDS011;5331;48.148;16.326;2022-07-25T11:27:20;6.28;;;5.85;;
10565;SDS011;5331;48.148;16.326;2022-07-25T11:29:48;6.55;;;5.95;;
10565;SDS011;5331;48.148;16.326;2022-07-25T11:32:15;6.75;;;6.05;;
10565;SDS011;5331;48.148;16.326;2022-07-25T11:34:43;6.90;;;6.22;;
10565;SDS011;5331;48.148;16.326;2022-07-25T11:37:13;6.93;;;6.43;;
10565;SDS011;5331;48.148;16.326;2022-07-25T11:39:41;6.30;;;5.90;;
10565;SDS011;5331;48.148;16.326;2022-07-25T11:42:11;6.47;;;5.97;;
10565;SDS011;5331;48.148;16.326;2022-07-25T11:44:41;6.15;;;5.75;;
10565;SDS011;5331;48.148;16.326;2022-07-25T11:47:19;6.80;;;6.10;;
10565;SDS011;5331;48.148;16.326;2022-07-25T11:49:48;6.57;;;6.07;;
10565;SDS011;5331;48.148;16.326;2022-07-25T11:52:20;6.85;;;6.25;;
10565;SDS011;5331;48.148;16.326;2022-07-25T11:54:49;6.70;;;6.18;;
10565;SDS011;5331;48.148;16.326;2022-07-25T11:57:21;6.55;;;5.95;;
10565;SDS011;5331;48.148;16.326;2022-07-25T11:59:49;6.10;;;5.60;;
10565;SDS011;5331;48.148;16.326;2022-07-25T12:02:23;6.75;;;6.18;;
10565;SDS011;5331;48.148;16.326;2022-07-25T12:04:55;6.85;;;6.35;;
10565;SDS011;5331;48.148;16.326;2022-07-25T12:07:33;7.00;;;6.40;;
10565;SDS011;5331;48.148;16.326;2022-07-25T12:10:05;7.13;;;6.53;;
10565;SDS011;5331;48.148;16.326;2022-07-25T12:12:41;6.60;;;6.10;;
10565;SDS011;5331;48.148;16.326;2022-07-25T12:15:14;7.00;;;6.40;;
10565;SDS011;5331;48.148;16.326;2022-07-25T12:17:42;7.00;;;6.50;;
10565;SDS011;5331;48.148;16.326;2022-07-25T12:20:11;7.57;;;6.40;;
10565;SDS011;5331;48.148;16.326;2022-07-25T12:22:40;6.85;;;6.30;;
10565;SDS011;5331;48.148;16.326;2022-07-25T12:25:08;7.28;;;6.75;;
10565;SDS011;5331;48.148;16.326;2022-07-25T12:27:35;7.28;;;6.57;;
10565;SDS011;5331;48.148;16.326;2022-07-25T12:30:05;7.03;;;6.53;;
10565;SDS011;5331;48.148;16.326;2022-07-25T12:32:32;7.03;;;6.40;;
10565;SDS011;5331;48.148;16.326;2022-07-25T12:35:00;7.38;;;6.75;;
10565;SDS011;5331;48.148;16.326;2022-07-25T12:37:27;7.68;;;6.90;;
10565;SDS011;5331;48.148;16.326;2022-07-25T12:39:54;6.45;;;6.05;;
10565;SDS011;5331;48.148;16.326;2022-07-25T12:42:21;7.00;;;6.50;;
10565;SDS011;5331;48.148;16.326;2022-07-25T12:44:48;6.80;;;6.30;;
10565;SDS011;5331;48.148;16.326;2022-07-25T12:47:16;7.15;;;6.55;;
10565;SDS011;5331;48.148;16.326;2022-07-25T12:49:43;7.43;;;6.93;;
10565;SDS011;5331;48.148;16.326;2022-07-25T12:52:10;7.05;;;6.55;;
10565;SDS011;5331;48.148;16.326;2022-07-25T12:54:37;6.70;;;6.22;;
10565;SDS011;5331;48.148;16.326;2022-07-25T12:57:04;7.15;;;6.55;;
10565;SDS011;5331;48.148;16.326;2022-07-25T12:59:32;7.18;;;6.57;;
10565;SDS011;5331;48.148;16.326;2022-07-25T13:01:59;7.20;;;6.70;;
10565;SDS011;5331;48.148;16.326;2022-07-25T13:04:28;7.03;;;6.45;;
10565;SDS011;5331;48.148;16.326;2022-07-25T13:06:55;7.07;;;6.43;;
10565;SDS011;5331;48.148;16.326;2022-07-25T13:09:22;7.25;;;6.55;;
10565;SDS011;5331;48.148;16.326;2022-07-25T13:11:49;7.78;;;7.05;;
10565;SDS011;5331;48.148;16.326;2022-07-25T13:14:16;7.72;;;7.03;;
10565;SDS011;5331;48.148;16.326;2022-07-25T13:16:43;7.10;;;6.50;;
10565;SDS011;5331;48.148;16.326;2022-07-25T13:19:10;7.53;;;6.90;;
10565;SDS011;5331;48.148;16.326;2022-07-25T13:21:39;7.50;;;6.82;;
10565;SDS011;5331;48.148;16.326;2022-07-25T13:24:07;7.13;;;6.53;;
10565;SDS011;5331;48.148;16.326;2022-07-25T13:26:35;7.28;;;6.60;;
10565;SDS011;5331;48.148;16.326;2022-07-25T13:29:02;7.30;;;6.68;;
10565;SDS011;5331;48.148;16.326;2022-07-25T13:31:32;8.10;;;7.50;;
10565;SDS011;5331;48.148;16.326;2022-07-25T13:33:59;8.25;;;7.60;;
10565;SDS011;5331;48.148;16.326;2022-07-25T13:36:26;8.00;;;7.40;;
10565;SDS011;5331;48.148;16.326;2022-07-25T13:38:54;8.52;;;7.72;;
10565;SDS011;5331;48.148;16.326;2022-07-25T13:41:21;8.18;;;7.57;;
10565;SDS011;5331;48.148;16.326;2022-07-25T13:43:48;8.32;;;7.55;;
10565;SDS011;5331;48.148;16.326;2022-07-25T13:46:15;8.02;;;7.25;;
10565;SDS011;5331;48.148;16.326;2022-07-25T13:48:42;7.78;;;7.22;;
10565;SDS011;5331;48.148;16.326;2022-07-25T13:51:09;7.95;;;7.32;;
10565;SDS011;5331;48.148;16.326;2022-07-25T13:53:37;7.88;;;7.20;;
10565;SDS011;5331;48.148;16.326;2022-07-25T13:56:05;7.40;;;6.90;;
10565;SDS011;5331;48.148;16.326;2022-07-25T13:58:32;7.55;;;6.85;;
10565;SDS011;5331;48.148;16.326;2022-07-25T14:00:59;8.10;;;7.35;;
10565;SDS011;5331;48.148;16.326;2022-07-25T14:03:26;7.90;;;7.30;;
10565;SDS011;5331;48.148;16.326;2022-07-25T14:05:53;7.22;;;6.72;;
10565;SDS011;5331;48.148;16.326;2022-07-25T14:08:20;8.02;;;7.45;;
10565;SDS011;5331;48.148;16.326;2022-07-25T14:10:46;8.25;;;7.65;;
10565;SDS011;5331;48.148;16.326;2022-07-25T14:13:15;8.48;;;7.88;;
10565;SDS011;5331;48.148;16.326;2022-07-25T14:15:41;8.75;;;8.07;;
10565;SDS011;5331;48.148;16.326;2022-07-25T14:18:08;8.55;;;7.82;;
10565;SDS011;5331;48.148;16.326;2022-07-25T14:20:36;7.90;;;7.40;;
10565;SDS011;5331;48.148;16.326;2022-07-25T14:23:03;8.50;;;7.80;;
10565;SDS011;5331;48.148;16.326;2022-07-25T14:25:30;8.05;;;7.53;;
10565;SDS011;5331;48.148;16.326;2022-07-25T14:27:57;8.23;;;7.63;;
10565;SDS011;5331;48.148;16.326;2022-07-25T14:30:26;8.20;;;7.60;;
10565;SDS011;5331;48.148;16.326;2022-07-25T14:32:53;8.25;;;7.65;;
10565;SDS011;5331;48.148;16.326;2022-07-25T14:35:19;8.45;;;7.80;;
10565;SDS011;5331;48.148;16.326;2022-07-25T14:37:46;7.80;;;7.30;;
10565;SDS011;5331;48.148;16.326;2022-07-25T14:40:13;8.20;;;7.60;;
10565;SDS011;5331;48.148;16.326;2022-07-25T14:42:40;8.52;;;7.93;;
10565;SDS011;5331;48.148;16.326;2022-07-25T14:45:09;8.18;;;7.57;;
10565;SDS011;5331;48.148;16.326;2022-07-25T14:47:38;9.05;;;8.43;;
10565;SDS011;5331;48.148;16.326;2022-07-25T14:50:06;8.40;;;7.80;;
10565;SDS011;5331;48.148;16.326;2022-07-25T14:52:33;8.35;;;7.75;;
10565;SDS011;5331;48.148;16.326;2022-07-25T14:55:00;8.90;;;8.25;;